sensor_id;sensor_type;location;lat;lon;timestamp;P1;durP1;ratioP1;P2;durP2;ratioP2
28068;SDS011;15382;47.578;8.086;2023-12-07T00:07:56;137.85;;;16.52;;
28068;SDS011;15382;47.578;8.086;2023-12-07T00:17:57;101.93;;;14.95;;
28068;SDS011;15382;47.578;8.086;2023-12-07T00:28:00;51.35;;;14.45;;
28068;SDS011;15382;47.578;8.086;2023-12-07T00:38:01;37.15;;;13.55;;
28068;SDS011;15382;47.578;8.086;2023-12-07T00:48:02;49.40;;;13.90;;
28068;SDS011;15382;47.578;8.086;2023-12-07T00:58:03;59.92;;;15.60;;
28068;SDS011;15382;47.578;8.086;2023-12-07T01:08:03;50.55;;;15.50;;
28068;SDS011;15382;47.578;8.086;2023-12-07T01:18:04;47.28;;;15.38;;
28068;SDS011;15382;47.578;8.086;2023-12-07T01:28:05;41.78;;;14.98;;
28068;SDS011;15382;47.578;8.086;2023-12-07T01:38:06;50.33;;;16.33;;
28068;SDS011;15382;47.578;8.086;2023-12-07T01:48:06;26.67;;;10.07;;
28068;SDS011;15382;47.578;8.086;2023-12-07T01:58:07;32.78;;;12.52;;
28068;SDS011;15382;47.578;8.086;2023-12-07T02:08:08;52.60;;;15.48;;
28068;SDS011;15382;47.578;8.086;2023-12-07T02:28:21;51.83;;;14.50;;
28068;SDS011;15382;47.578;8.086;2023-12-07T02:38:22;45.95;;;15.25;;
28068;SDS011;15382;47.578;8.086;2023-12-07T02:48:26;34.15;;;11.73;;
28068;SDS011;15382;47.578;8.086;2023-12-07T02:58:27;31.20;;;12.45;;
28068;SDS011;15382;47.578;8.086;2023-12-07T03:08:28;35.58;;;13.27;;
28068;SDS011;15382;47.578;8.086;2023-12-07T03:18:28;40.83;;;14.95;;
28068;SDS011;15382;47.578;8.086;2023-12-07T03:28:29;41.65;;;14.82;;
28068;SDS011;15382;47.578;8.086;2023-12-07T03:38:30;45.70;;;14.95;;
28068;SDS011;15382;47.578;8.086;2023-12-07T03:48:31;40.67;;;15.82;;
28068;SDS011;15382;47.578;8.086;2023-12-07T03:58:33;32.65;;;14.32;;
28068;SDS011;15382;47.578;8.086;2023-12-07T04:08:33;30.13;;;13.10;;
28068;SDS011;15382;47.578;8.086;2023-12-07T04:18:34;32.15;;;12.90;;
28068;SDS011;15382;47.578;8.086;2023-12-07T04:28:35;25.65;;;11.23;;
28068;SDS011;15382;47.578;8.086;2023-12-07T04:38:36;33.58;;;12.98;;
28068;SDS011;15382;47.578;8.086;2023-12-07T04:48:37;30.60;;;12.77;;
28068;SDS011;15382;47.578;8.086;2023-12-07T04:58:37;36.65;;;14.18;;
28068;SDS011;15382;47.578;8.086;2023-12-07T05:08:39;44.05;;;14.48;;
28068;SDS011;15382;47.578;8.086;2023-12-07T05:18:40;38.70;;;13.48;;
28068;SDS011;15382;47.578;8.086;2023-12-07T05:28:41;34.13;;;13.70;;
28068;SDS011;15382;47.578;8.086;2023-12-07T05:38:42;35.22;;;12.68;;
28068;SDS011;15382;47.578;8.086;2023-12-07T05:48:43;35.50;;;12.95;;
28068;SDS011;15382;47.578;8.086;2023-12-07T05:58:44;37.80;;;12.55;;
28068;SDS011;15382;47.578;8.086;2023-12-07T06:08:45;27.02;;;10.95;;
28068;SDS011;15382;47.578;8.086;2023-12-07T06:18:46;23.23;;;9.93;;
28068;SDS011;15382;47.578;8.086;2023-12-07T06:28:47;23.13;;;9.90;;
28068;SDS011;15382;47.578;8.086;2023-12-07T06:38:47;25.08;;;10.50;;
28068;SDS011;15382;47.578;8.086;2023-12-07T06:48:48;23.30;;;9.90;;
28068;SDS011;15382;47.578;8.086;2023-12-07T06:58:50;26.17;;;10.30;;
28068;SDS011;15382;47.578;8.086;2023-12-07T07:08:50;25.67;;;10.70;;
28068;SDS011;15382;47.578;8.086;2023-12-07T07:18:51;25.58;;;11.05;;
28068;SDS011;15382;47.578;8.086;2023-12-07T07:28:52;30.85;;;13.10;;
28068;SDS011;15382;47.578;8.086;2023-12-07T07:38:53;26.52;;;11.43;;
28068;SDS011;15382;47.578;8.086;2023-12-07T07:48:53;29.00;;;11.82;;
28068;SDS011;15382;47.578;8.086;2023-12-07T07:58:54;26.02;;;11.50;;
28068;SDS011;15382;47.578;8.086;2023-12-07T08:08:55;22.33;;;10.80;;
28068;SDS011;15382;47.578;8.086;2023-12-07T08:18:56;25.75;;;11.35;;
28068;SDS011;15382;47.578;8.086;2023-12-07T08:28:58;23.05;;;10.95;;
28068;SDS011;15382;47.578;8.086;2023-12-07T08:38:59;28.10;;;11.80;;
28068;SDS011;15382;47.578;8.086;2023-12-07T08:48:59;23.77;;;10.25;;
28068;SDS011;15382;47.578;8.086;2023-12-07T08:59:00;25.90;;;11.27;;
28068;SDS011;15382;47.578;8.086;2023-12-07T09:09:02;31.67;;;14.50;;
28068;SDS011;15382;47.578;8.086;2023-12-07T09:19:06;31.60;;;12.60;;
28068;SDS011;15382;47.578;8.086;2023-12-07T09:29:06;35.42;;;14.15;;
28068;SDS011;15382;47.578;8.086;2023-12-07T09:39:08;34.95;;;13.60;;
28068;SDS011;15382;47.578;8.086;2023-12-07T09:49:10;26.77;;;11.93;;
28068;SDS011;15382;47.578;8.086;2023-12-07T09:59:12;25.60;;;11.65;;
28068;SDS011;15382;47.578;8.086;2023-12-07T10:09:13;22.48;;;11.20;;
28068;SDS011;15382;47.578;8.086;2023-12-07T10:19:14;22.85;;;9.45;;
28068;SDS011;15382;47.578;8.086;2023-12-07T10:29:18;21.63;;;10.07;;
28068;SDS011;15382;47.578;8.086;2023-12-07T10:39:24;17.85;;;8.27;;
28068;SDS011;15382;47.578;8.086;2023-12-07T10:49:26;15.25;;;7.95;;
28068;SDS011;15382;47.578;8.086;2023-12-07T10:59:28;26.63;;;9.75;;
28068;SDS011;15382;47.578;8.086;2023-12-07T11:09:31;20.50;;;10.43;;
28068;SDS011;15382;47.578;8.086;2023-12-07T11:29:36;23.60;;;10.85;;
28068;SDS011;15382;47.578;8.086;2023-12-07T11:39:37;20.58;;;10.70;;
28068;SDS011;15382;47.578;8.086;2023-12-07T11:49:43;16.77;;;9.35;;
28068;SDS011;15382;47.578;8.086;2023-12-07T11:59:47;18.40;;;9.50;;
28068;SDS011;15382;47.578;8.086;2023-12-07T12:09:48;19.85;;;8.93;;
28068;SDS011;15382;47.578;8.086;2023-12-07T12:19:49;17.13;;;8.10;;
28068;SDS011;15382;47.578;8.086;2023-12-07T12:29:54;16.55;;;7.82;;
28068;SDS011;15382;47.578;8.086;2023-12-07T12:39:56;20.00;;;9.20;;
28068;SDS011;15382;47.578;8.086;2023-12-07T12:49:57;17.55;;;8.50;;
28068;SDS011;15382;47.578;8.086;2023-12-07T12:59:58;18.08;;;8.82;;
28068;SDS011;15382;47.578;8.086;2023-12-07T13:10:01;19.92;;;8.15;;
28068;SDS011;15382;47.578;8.086;2023-12-07T13:20:02;17.83;;;8.48;;
28068;SDS011;15382;47.578;8.086;2023-12-07T13:30:03;14.13;;;7.82;;
28068;SDS011;15382;47.578;8.086;2023-12-07T13:40:07;14.57;;;7.88;;
28068;SDS011;15382;47.578;8.086;2023-12-07T13:50:10;15.25;;;8.70;;
28068;SDS011;15382;47.578;8.086;2023-12-07T14:00:12;17.05;;;9.30;;
28068;SDS011;15382;47.578;8.086;2023-12-07T14:10:13;16.13;;;8.57;;
28068;SDS011;15382;47.578;8.086;2023-12-07T14:20:15;22.63;;;11.20;;
28068;SDS011;15382;47.578;8.086;2023-12-07T14:30:16;23.40;;;10.57;;
28068;SDS011;15382;47.578;8.086;2023-12-07T14:40:16;17.58;;;9.32;;
28068;SDS011;15382;47.578;8.086;2023-12-07T14:50:18;18.52;;;9.20;;
28068;SDS011;15382;47.578;8.086;2023-12-07T15:00:18;21.48;;;11.63;;
28068;SDS011;15382;47.578;8.086;2023-12-07T15:10:19;20.00;;;10.00;;
28068;SDS011;15382;47.578;8.086;2023-12-07T15:20:20;16.95;;;8.68;;
28068;SDS011;15382;47.578;8.086;2023-12-07T15:30:21;22.75;;;9.98;;
28068;SDS011;15382;47.578;8.086;2023-12-07T15:40:25;21.80;;;10.57;;
28068;SDS011;15382;47.578;8.086;2023-12-07T15:50:26;21.50;;;10.38;;
28068;SDS011;15382;47.578;8.086;2023-12-07T16:00:27;22.35;;;10.88;;
28068;SDS011;15382;47.578;8.086;2023-12-07T16:10:28;22.73;;;10.50;;
28068;SDS011;15382;47.578;8.086;2023-12-07T16:20:29;25.48;;;12.07;;
28068;SDS011;15382;47.578;8.086;2023-12-07T16:30:30;21.60;;;10.50;;
28068;SDS011;15382;47.578;8.086;2023-12-07T16:40:30;24.85;;;12.05;;
28068;SDS011;15382;47.578;8.086;2023-12-07T16:50:31;26.00;;;12.23;;
28068;SDS011;15382;47.578;8.086;2023-12-07T17:00:32;31.08;;;12.38;;
28068;SDS011;15382;47.578;8.086;2023-12-07T17:10:33;35.80;;;12.63;;
28068;SDS011;15382;47.578;8.086;2023-12-07T17:20:33;25.42;;;11.85;;
28068;SDS011;15382;47.578;8.086;2023-12-07T17:30:34;30.15;;;12.93;;
28068;SDS011;15382;47.578;8.086;2023-12-07T17:40:35;26.63;;;11.48;;
28068;SDS011;15382;47.578;8.086;2023-12-07T17:50:36;34.88;;;14.02;;
28068;SDS011;15382;47.578;8.086;2023-12-07T18:00:39;28.05;;;12.23;;
28068;SDS011;15382;47.578;8.086;2023-12-07T18:10:40;29.88;;;13.07;;
28068;SDS011;15382;47.578;8.086;2023-12-07T18:20:40;37.17;;;14.90;;
28068;SDS011;15382;47.578;8.086;2023-12-07T18:30:42;34.53;;;14.68;;
28068;SDS011;15382;47.578;8.086;2023-12-07T18:40:43;34.38;;;15.38;;
28068;SDS011;15382;47.578;8.086;2023-12-07T18:50:45;36.10;;;14.77;;
28068;SDS011;15382;47.578;8.086;2023-12-07T19:00:48;34.72;;;15.68;;
28068;SDS011;15382;47.578;8.086;2023-12-07T19:10:49;47.92;;;18.48;;
28068;SDS011;15382;47.578;8.086;2023-12-07T19:20:50;42.35;;;19.05;;
28068;SDS011;15382;47.578;8.086;2023-12-07T19:30:51;45.15;;;18.30;;
28068;SDS011;15382;47.578;8.086;2023-12-07T19:40:52;42.50;;;19.30;;
28068;SDS011;15382;47.578;8.086;2023-12-07T19:50:52;52.22;;;21.55;;
28068;SDS011;15382;47.578;8.086;2023-12-07T20:00:53;62.83;;;25.60;;
28068;SDS011;15382;47.578;8.086;2023-12-07T20:10:54;57.20;;;21.90;;
28068;SDS011;15382;47.578;8.086;2023-12-07T20:20:55;53.60;;;21.80;;
28068;SDS011;15382;47.578;8.086;2023-12-07T20:30:59;53.75;;;22.60;;
28068;SDS011;15382;47.578;8.086;2023-12-07T20:40:59;55.80;;;22.17;;
28068;SDS011;15382;47.578;8.086;2023-12-07T20:51:00;55.53;;;22.65;;
28068;SDS011;15382;47.578;8.086;2023-12-07T21:01:02;57.45;;;24.20;;
28068;SDS011;15382;47.578;8.086;2023-12-07T21:11:03;61.88;;;25.33;;
28068;SDS011;15382;47.578;8.086;2023-12-07T21:21:04;61.70;;;24.73;;
28068;SDS011;15382;47.578;8.086;2023-12-07T21:31:05;69.03;;;26.23;;
28068;SDS011;15382;47.578;8.086;2023-12-07T21:41:06;74.78;;;26.25;;
28068;SDS011;15382;47.578;8.086;2023-12-07T21:51:07;69.72;;;27.63;;
28068;SDS011;15382;47.578;8.086;2023-12-07T22:01:07;76.97;;;28.40;;
28068;SDS011;15382;47.578;8.086;2023-12-07T22:11:08;70.30;;;26.50;;
28068;SDS011;15382;47.578;8.086;2023-12-07T22:21:09;71.07;;;25.08;;
28068;SDS011;15382;47.578;8.086;2023-12-07T22:31:10;68.30;;;25.90;;
28068;SDS011;15382;47.578;8.086;2023-12-07T22:41:11;70.97;;;28.10;;
28068;SDS011;15382;47.578;8.086;2023-12-07T22:51:13;75.10;;;28.20;;
28068;SDS011;15382;47.578;8.086;2023-12-07T23:01:14;75.35;;;26.75;;
28068;SDS011;15382;47.578;8.086;2023-12-07T23:11:15;61.60;;;24.58;;
28068;SDS011;15382;47.578;8.086;2023-12-07T23:21:15;61.28;;;24.08;;
28068;SDS011;15382;47.578;8.086;2023-12-07T23:31:16;68.10;;;24.65;;
28068;SDS011;15382;47.578;8.086;2023-12-07T23:41:17;68.40;;;25.77;;
28068;SDS011;15382;47.578;8.086;2023-12-07T23:51:18;70.38;;;25.88;;
